sensor_id;sensor_type;location;lat;lon;timestamp;pressure;altitude;pressure_sealevel;temperature;humidity
76108;BME280;64834;52.516;10.528;2022-12-07T00:01:41;100786.88;;;1.53;96.46
76108;BME280;64834;52.516;10.528;2022-12-07T00:04:09;100784.75;;;1.57;96.40
76108;BME280;64834;52.516;10.528;2022-12-07T00:06:41;100778.47;;;1.64;96.18
76108;BME280;64834;52.516;10.528;2022-12-07T00:09:08;100782.56;;;1.62;96.16
76108;BME280;64834;52.516;10.528;2022-12-07T00:11:34;100778.31;;;1.62;96.10
76108;BME280;64834;52.516;10.528;2022-12-07T00:14:02;100776.72;;;1.73;95.91
76108;BME280;64834;52.516;10.528;2022-12-07T00:16:29;100769.75;;;1.72;95.88
76108;BME280;64834;52.516;10.528;2022-12-07T00:18:55;100774.56;;;1.78;95.85
76108;BME280;64834;52.516;10.528;2022-12-07T00:21:23;100766.69;;;1.76;96.03
76108;BME280;64834;52.516;10.528;2022-12-07T00:23:50;100762.00;;;1.72;96.33
76108;BME280;64834;52.516;10.528;2022-12-07T00:26:28;100764.50;;;1.81;96.40
76108;BME280;64834;52.516;10.528;2022-12-07T00:28:56;100761.38;;;1.75;96.28
76108;BME280;64834;52.516;10.528;2022-12-07T00:31:24;100756.44;;;1.86;96.09
76108;BME280;64834;52.516;10.528;2022-12-07T00:33:49;100762.84;;;1.81;96.27
76108;BME280;64834;52.516;10.528;2022-12-07T00:36:19;100757.84;;;1.83;96.26
76108;BME280;64834;52.516;10.528;2022-12-07T00:38:45;100752.38;;;1.80;96.33
76108;BME280;64834;52.516;10.528;2022-12-07T00:41:14;100756.16;;;1.83;96.56
76108;BME280;64834;52.516;10.528;2022-12-07T00:43:40;100753.84;;;1.86;96.62
76108;BME280;64834;52.516;10.528;2022-12-07T00:46:06;100747.56;;;1.93;96.55
76108;BME280;64834;52.516;10.528;2022-12-07T00:48:31;100748.75;;;1.97;96.54
76108;BME280;64834;52.516;10.528;2022-12-07T00:50:56;100743.59;;;1.97;97.03
76108;BME280;64834;52.516;10.528;2022-12-07T00:53:22;100742.19;;;2.00;96.97
76108;BME280;64834;52.516;10.528;2022-12-07T00:55:47;100742.72;;;2.06;96.74
76108;BME280;64834;52.516;10.528;2022-12-07T00:58:13;100737.22;;;2.12;96.90
76108;BME280;64834;52.516;10.528;2022-12-07T01:00:40;100720.06;;;2.12;96.98
76108;BME280;64834;52.516;10.528;2022-12-07T01:03:07;100717.75;;;2.15;96.87
76108;BME280;64834;52.516;10.528;2022-12-07T01:05:33;100712.59;;;2.15;97.29
76108;BME280;64834;52.516;10.528;2022-12-07T01:07:58;100711.72;;;2.25;97.24
76108;BME280;64834;52.516;10.528;2022-12-07T01:10:24;100703.19;;;2.26;97.01
76108;BME280;64834;52.516;10.528;2022-12-07T01:12:49;100711.19;;;2.19;97.41
76108;BME280;64834;52.516;10.528;2022-12-07T01:15:15;100711.47;;;2.22;97.39
76108;BME280;64834;52.516;10.528;2022-12-07T01:17:40;100705.56;;;2.33;97.38
76108;BME280;64834;52.516;10.528;2022-12-07T01:20:06;100701.16;;;2.32;97.40
76108;BME280;64834;52.516;10.528;2022-12-07T01:22:31;100694.84;;;2.29;97.52
76108;BME280;64834;52.516;10.528;2022-12-07T01:25:01;100702.34;;;2.36;97.44
76108;BME280;64834;52.516;10.528;2022-12-07T01:27:26;100702.22;;;2.34;97.42
76108;BME280;64834;52.516;10.528;2022-12-07T01:29:51;100701.31;;;2.34;97.62
76108;BME280;64834;52.516;10.528;2022-12-07T01:32:17;100697.06;;;2.34;97.75
76108;BME280;64834;52.516;10.528;2022-12-07T01:34:42;100693.94;;;2.38;97.76
76108;BME280;64834;52.516;10.528;2022-12-07T01:37:07;100696.94;;;2.43;97.52
76108;BME280;64834;52.516;10.528;2022-12-07T01:39:33;100691.91;;;2.44;97.42
76108;BME280;64834;52.516;10.528;2022-12-07T01:41:58;100685.94;;;2.35;97.81
76108;BME280;64834;52.516;10.528;2022-12-07T01:44:27;100689.47;;;2.46;97.33
76108;BME280;64834;52.516;10.528;2022-12-07T01:47:03;100689.19;;;2.43;97.48
76108;BME280;64834;52.516;10.528;2022-12-07T01:49:42;100688.94;;;2.50;97.59
76108;BME280;64834;52.516;10.528;2022-12-07T01:52:25;100685.59;;;2.51;97.50
76108;BME280;64834;52.516;10.528;2022-12-07T01:54:58;100675.41;;;2.53;97.56
76108;BME280;64834;52.516;10.528;2022-12-07T01:57:25;100673.63;;;2.52;97.87
76108;BME280;64834;52.516;10.528;2022-12-07T01:59:52;100671.66;;;2.49;97.96
76108;BME280;64834;52.516;10.528;2022-12-07T02:02:23;100680.84;;;2.56;97.96
76108;BME280;64834;52.516;10.528;2022-12-07T02:04:52;100680.59;;;2.63;97.89
76108;BME280;64834;52.516;10.528;2022-12-07T02:07:18;100671.16;;;2.63;97.54
76108;BME280;64834;52.516;10.528;2022-12-07T02:09:44;100665.09;;;2.63;97.79
76108;BME280;64834;52.516;10.528;2022-12-07T02:12:09;100666.16;;;2.65;97.83
76108;BME280;64834;52.516;10.528;2022-12-07T02:14:35;100660.81;;;2.63;97.84
76108;BME280;64834;52.516;10.528;2022-12-07T02:17:12;100656.06;;;2.68;97.74
76108;BME280;64834;52.516;10.528;2022-12-07T02:25:41;100656.09;;;2.78;97.74
76108;BME280;64834;52.516;10.528;2022-12-07T02:28:31;100659.69;;;2.80;97.61
76108;BME280;64834;52.516;10.528;2022-12-07T02:31:05;100646.25;;;2.74;97.70
76108;BME280;64834;52.516;10.528;2022-12-07T02:33:45;100650.66;;;2.85;97.39
76108;BME280;64834;52.516;10.528;2022-12-07T02:36:23;100646.41;;;2.86;97.39
76108;BME280;64834;52.516;10.528;2022-12-07T02:39:11;100643.69;;;2.84;97.33
76108;BME280;64834;52.516;10.528;2022-12-07T02:41:47;100643.03;;;2.87;97.43
76108;BME280;64834;52.516;10.528;2022-12-07T02:44:17;100631.91;;;2.88;97.37
76108;BME280;64834;52.516;10.528;2022-12-07T02:46:50;100639.16;;;2.92;97.03
76108;BME280;64834;52.516;10.528;2022-12-07T02:49:18;100634.22;;;2.95;97.23
76108;BME280;64834;52.516;10.528;2022-12-07T02:51:46;100639.41;;;2.95;97.03
76108;BME280;64834;52.516;10.528;2022-12-07T02:54:13;100635.41;;;2.98;96.46
76108;BME280;64834;52.516;10.528;2022-12-07T02:56:40;100632.31;;;3.03;96.62
76108;BME280;64834;52.516;10.528;2022-12-07T03:05:05;100630.09;;;3.07;95.84
76108;BME280;64834;52.516;10.528;2022-12-07T03:07:36;100628.56;;;3.09;95.64
76108;BME280;64834;52.516;10.528;2022-12-07T03:10:09;100632.44;;;3.14;95.34
76108;BME280;64834;52.516;10.528;2022-12-07T03:12:53;100622.63;;;3.10;95.53
76108;BME280;64834;52.516;10.528;2022-12-07T03:15:34;100614.06;;;3.11;95.45
76108;BME280;64834;52.516;10.528;2022-12-07T03:18:02;100622.63;;;3.10;95.03
76108;BME280;64834;52.516;10.528;2022-12-07T03:20:29;100607.34;;;3.13;94.95
76108;BME280;64834;52.516;10.528;2022-12-07T03:22:56;100603.06;;;3.14;94.80
76108;BME280;64834;52.516;10.528;2022-12-07T03:25:26;100620.41;;;3.15;94.86
76108;BME280;64834;52.516;10.528;2022-12-07T03:27:55;100610.19;;;3.16;94.48
76108;BME280;64834;52.516;10.528;2022-12-07T03:30:24;100606.06;;;3.18;94.08
76108;BME280;64834;52.516;10.528;2022-12-07T03:35:31;100609.19;;;3.14;93.99
76108;BME280;64834;52.516;10.528;2022-12-07T03:38:52;100608.25;;;3.14;93.76
76108;BME280;64834;52.516;10.528;2022-12-07T03:41:24;100601.16;;;3.11;94.05
76108;BME280;64834;52.516;10.528;2022-12-07T03:43:51;100607.63;;;3.16;93.54
76108;BME280;64834;52.516;10.528;2022-12-07T03:49:14;100594.97;;;3.09;93.94
76108;BME280;64834;52.516;10.528;2022-12-07T03:51:45;100606.31;;;3.11;93.69
76108;BME280;64834;52.516;10.528;2022-12-07T03:54:26;100619.91;;;3.09;94.11
76108;BME280;64834;52.516;10.528;2022-12-07T03:56:54;100615.38;;;3.06;94.29
76108;BME280;64834;52.516;10.528;2022-12-07T03:59:20;100610.97;;;3.05;94.27
76108;BME280;64834;52.516;10.528;2022-12-07T04:01:53;100612.00;;;3.07;93.80
76108;BME280;64834;52.516;10.528;2022-12-07T04:04:18;100605.69;;;3.04;93.89
76108;BME280;64834;52.516;10.528;2022-12-07T04:06:44;100615.63;;;2.99;94.07
76108;BME280;64834;52.516;10.528;2022-12-07T04:09:09;100609.44;;;2.97;94.12
76108;BME280;64834;52.516;10.528;2022-12-07T04:11:34;100618.88;;;2.96;94.23
76108;BME280;64834;52.516;10.528;2022-12-07T04:14:00;100615.25;;;2.94;94.09
76108;BME280;64834;52.516;10.528;2022-12-07T04:16:44;100612.66;;;2.94;93.96
76108;BME280;64834;52.516;10.528;2022-12-07T04:19:09;100603.09;;;2.93;94.09
76108;BME280;64834;52.516;10.528;2022-12-07T04:21:34;100608.81;;;2.89;94.44
76108;BME280;64834;52.516;10.528;2022-12-07T04:24:00;100610.47;;;2.89;94.47
76108;BME280;64834;52.516;10.528;2022-12-07T04:26:25;100609.31;;;2.85;94.71
76108;BME280;64834;52.516;10.528;2022-12-07T04:28:50;100617.84;;;2.84;94.58
76108;BME280;64834;52.516;10.528;2022-12-07T04:31:16;100616.94;;;2.84;94.74
76108;BME280;64834;52.516;10.528;2022-12-07T04:33:41;100620.16;;;2.81;95.10
76108;BME280;64834;52.516;10.528;2022-12-07T04:36:06;100613.97;;;2.79;94.75
76108;BME280;64834;52.516;10.528;2022-12-07T04:38:32;100611.78;;;2.84;94.08
76108;BME280;64834;52.516;10.528;2022-12-07T04:40:57;100610.72;;;2.82;93.46
76108;BME280;64834;52.516;10.528;2022-12-07T04:43:22;100607.34;;;2.83;93.71
76108;BME280;64834;52.516;10.528;2022-12-07T04:45:48;100606.09;;;2.78;94.10
76108;BME280;64834;52.516;10.528;2022-12-07T04:48:14;100607.00;;;2.78;94.14
76108;BME280;64834;52.516;10.528;2022-12-07T04:50:39;100600.75;;;2.76;94.04
76108;BME280;64834;52.516;10.528;2022-12-07T04:53:05;100599.75;;;2.74;94.07
76108;BME280;64834;52.516;10.528;2022-12-07T04:55:30;100604.53;;;2.80;93.35
76108;BME280;64834;52.516;10.528;2022-12-07T04:57:55;100600.53;;;2.73;93.78
76108;BME280;64834;52.516;10.528;2022-12-07T05:00:21;100608.28;;;2.73;94.03
76108;BME280;64834;52.516;10.528;2022-12-07T05:02:46;100601.03;;;2.69;94.33
76108;BME280;64834;52.516;10.528;2022-12-07T05:05:11;100605.28;;;2.68;94.14
76108;BME280;64834;52.516;10.528;2022-12-07T05:07:36;100600.91;;;2.67;94.30
76108;BME280;64834;52.516;10.528;2022-12-07T05:10:02;100596.25;;;2.63;93.94
76108;BME280;64834;52.516;10.528;2022-12-07T05:12:27;100608.78;;;2.59;94.22
76108;BME280;64834;52.516;10.528;2022-12-07T05:14:53;100606.81;;;2.56;94.23
76108;BME280;64834;52.516;10.528;2022-12-07T05:17:18;100609.28;;;2.55;94.50
76108;BME280;64834;52.516;10.528;2022-12-07T05:19:43;100606.97;;;2.48;94.67
76108;BME280;64834;52.516;10.528;2022-12-07T05:22:09;100615.59;;;2.48;94.65
76108;BME280;64834;52.516;10.528;2022-12-07T05:24:34;100613.94;;;2.49;94.97
76108;BME280;64834;52.516;10.528;2022-12-07T05:27:00;100614.72;;;2.48;94.85
76108;BME280;64834;52.516;10.528;2022-12-07T05:29:25;100607.75;;;2.47;94.72
76108;BME280;64834;52.516;10.528;2022-12-07T05:31:50;100618.06;;;2.47;94.81
76108;BME280;64834;52.516;10.528;2022-12-07T05:34:16;100617.91;;;2.45;94.91
76108;BME280;64834;52.516;10.528;2022-12-07T05:36:41;100615.19;;;2.43;94.72
76108;BME280;64834;52.516;10.528;2022-12-07T05:39:08;100609.91;;;2.42;95.06
76108;BME280;64834;52.516;10.528;2022-12-07T05:41:33;100606.44;;;2.41;94.92
76108;BME280;64834;52.516;10.528;2022-12-07T05:44:17;100608.13;;;2.41;94.74
76108;BME280;64834;52.516;10.528;2022-12-07T05:46:43;100604.75;;;2.42;94.63
76108;BME280;64834;52.516;10.528;2022-12-07T05:49:08;100601.75;;;2.37;94.80
76108;BME280;64834;52.516;10.528;2022-12-07T05:51:33;100605.41;;;2.39;94.66
76108;BME280;64834;52.516;10.528;2022-12-07T05:53:59;100604.22;;;2.36;94.77
76108;BME280;64834;52.516;10.528;2022-12-07T05:56:24;100602.13;;;2.32;94.87
76108;BME280;64834;52.516;10.528;2022-12-07T05:58:50;100604.59;;;2.30;94.98
76108;BME280;64834;52.516;10.528;2022-12-07T06:01:33;100601.88;;;2.29;94.51
76108;BME280;64834;52.516;10.528;2022-12-07T06:03:58;100611.94;;;2.26;94.75
76108;BME280;64834;52.516;10.528;2022-12-07T06:06:24;100608.97;;;2.21;94.87
76108;BME280;64834;52.516;10.528;2022-12-07T06:08:49;100607.19;;;2.20;94.93
76108;BME280;64834;52.516;10.528;2022-12-07T06:11:15;100607.19;;;2.20;94.78
76108;BME280;64834;52.516;10.528;2022-12-07T06:13:59;100603.81;;;2.21;94.99
76108;BME280;64834;52.516;10.528;2022-12-07T06:16:24;100608.81;;;2.20;95.06
76108;BME280;64834;52.516;10.528;2022-12-07T06:18:49;100604.59;;;2.20;95.06
76108;BME280;64834;52.516;10.528;2022-12-07T06:21:15;100606.13;;;2.18;95.05
76108;BME280;64834;52.516;10.528;2022-12-07T06:23:40;100611.41;;;2.20;94.88
76108;BME280;64834;52.516;10.528;2022-12-07T06:26:05;100604.31;;;2.17;95.04
76108;BME280;64834;52.516;10.528;2022-12-07T06:28:30;100607.91;;;2.19;95.16
76108;BME280;64834;52.516;10.528;2022-12-07T06:30:57;100609.75;;;2.20;95.06
76108;BME280;64834;52.516;10.528;2022-12-07T06:33:24;100607.19;;;2.20;95.04
76108;BME280;64834;52.516;10.528;2022-12-07T06:35:49;100615.03;;;2.22;95.12
76108;BME280;64834;52.516;10.528;2022-12-07T06:38:14;100616.84;;;2.23;94.96
76108;BME280;64834;52.516;10.528;2022-12-07T06:40:40;100620.47;;;2.25;95.13
76108;BME280;64834;52.516;10.528;2022-12-07T06:43:06;100617.88;;;2.25;94.86
76108;BME280;64834;52.516;10.528;2022-12-07T06:45:31;100620.59;;;2.26;94.91
76108;BME280;64834;52.516;10.528;2022-12-07T06:47:56;100617.09;;;2.26;94.77
76108;BME280;64834;52.516;10.528;2022-12-07T06:50:22;100619.06;;;2.28;94.59
76108;BME280;64834;52.516;10.528;2022-12-07T06:52:47;100622.25;;;2.26;94.62
76108;BME280;64834;52.516;10.528;2022-12-07T06:55:12;100622.41;;;2.27;94.48
76108;BME280;64834;52.516;10.528;2022-12-07T06:57:38;100617.09;;;2.26;94.63
76108;BME280;64834;52.516;10.528;2022-12-07T07:00:03;100614.13;;;2.21;94.62
76108;BME280;64834;52.516;10.528;2022-12-07T07:02:29;100626.41;;;2.24;94.41
76108;BME280;64834;52.516;10.528;2022-12-07T07:04:54;100623.41;;;2.19;94.51
76108;BME280;64834;52.516;10.528;2022-12-07T07:07:19;100619.31;;;2.21;94.24
76108;BME280;64834;52.516;10.528;2022-12-07T07:09:45;100618.25;;;2.19;94.05
76108;BME280;64834;52.516;10.528;2022-12-07T07:12:10;100621.59;;;2.18;93.55
76108;BME280;64834;52.516;10.528;2022-12-07T07:14:35;100620.81;;;2.19;93.58
76108;BME280;64834;52.516;10.528;2022-12-07T07:17:01;100624.06;;;2.16;93.68
76108;BME280;64834;52.516;10.528;2022-12-07T07:19:26;100619.53;;;2.14;93.54
76108;BME280;64834;52.516;10.528;2022-12-07T07:21:52;100620.44;;;2.14;93.22
76108;BME280;64834;52.516;10.528;2022-12-07T07:24:17;100624.72;;;2.14;92.96
76108;BME280;64834;52.516;10.528;2022-12-07T07:26:42;100627.91;;;2.11;93.79
76108;BME280;64834;52.516;10.528;2022-12-07T07:29:08;100624.72;;;2.14;93.54
76108;BME280;64834;52.516;10.528;2022-12-07T07:31:33;100621.84;;;2.11;94.09
76108;BME280;64834;52.516;10.528;2022-12-07T07:34:00;100612.28;;;2.10;93.76
76108;BME280;64834;52.516;10.528;2022-12-07T07:36:26;100622.34;;;2.07;94.12
76108;BME280;64834;52.516;10.528;2022-12-07T07:38:51;100628.28;;;2.06;94.20
76108;BME280;64834;52.516;10.528;2022-12-07T07:41:16;100628.63;;;2.00;94.06
76108;BME280;64834;52.516;10.528;2022-12-07T07:43:42;100635.63;;;2.01;94.17
76108;BME280;64834;52.516;10.528;2022-12-07T07:46:07;100625.69;;;2.06;94.51
76108;BME280;64834;52.516;10.528;2022-12-07T07:48:32;100629.19;;;2.06;94.56
76108;BME280;64834;52.516;10.528;2022-12-07T07:50:58;100637.19;;;2.09;94.67
76108;BME280;64834;52.516;10.528;2022-12-07T07:53:23;100632.03;;;2.09;94.58
76108;BME280;64834;52.516;10.528;2022-12-07T07:55:52;100623.66;;;2.12;94.69
76108;BME280;64834;52.516;10.528;2022-12-07T07:58:18;100629.88;;;2.14;94.87
76108;BME280;64834;52.516;10.528;2022-12-07T08:00:44;100631.69;;;2.15;94.89
76108;BME280;64834;52.516;10.528;2022-12-07T08:03:09;100632.22;;;2.21;94.88
76108;BME280;64834;52.516;10.528;2022-12-07T08:05:36;100646.81;;;2.21;94.46
76108;BME280;64834;52.516;10.528;2022-12-07T08:08:02;100643.69;;;2.25;94.70
76108;BME280;64834;52.516;10.528;2022-12-07T08:10:27;100642.91;;;2.26;94.11
76108;BME280;64834;52.516;10.528;2022-12-07T08:12:52;100642.28;;;2.28;94.30
76108;BME280;64834;52.516;10.528;2022-12-07T08:15:38;100643.06;;;2.27;94.21
76108;BME280;64834;52.516;10.528;2022-12-07T08:18:03;100641.53;;;2.29;93.94
76108;BME280;64834;52.516;10.528;2022-12-07T08:20:33;100640.75;;;2.30;93.95
76108;BME280;64834;52.516;10.528;2022-12-07T08:22:59;100646.19;;;2.33;94.15
76108;BME280;64834;52.516;10.528;2022-12-07T08:25:25;100647.47;;;2.28;93.57
76108;BME280;64834;52.516;10.528;2022-12-07T08:27:51;100636.59;;;2.32;93.98
76108;BME280;64834;52.516;10.528;2022-12-07T08:30:17;100639.19;;;2.32;94.23
76108;BME280;64834;52.516;10.528;2022-12-07T08:32:44;100644.09;;;2.29;93.80
76108;BME280;64834;52.516;10.528;2022-12-07T08:35:09;100645.91;;;2.30;93.86
76108;BME280;64834;52.516;10.528;2022-12-07T08:37:35;100633.78;;;2.29;94.11
76108;BME280;64834;52.516;10.528;2022-12-07T08:40:00;100637.38;;;2.31;94.15
76108;BME280;64834;52.516;10.528;2022-12-07T08:42:26;100643.59;;;2.33;93.54
76108;BME280;64834;52.516;10.528;2022-12-07T08:44:57;100644.09;;;2.29;94.01
76108;BME280;64834;52.516;10.528;2022-12-07T08:47:24;100650.81;;;2.37;94.10
76108;BME280;64834;52.516;10.528;2022-12-07T08:49:51;100649.94;;;2.37;94.14
76108;BME280;64834;52.516;10.528;2022-12-07T08:52:17;100648.25;;;2.37;93.67
76108;BME280;64834;52.516;10.528;2022-12-07T08:54:43;100653.81;;;2.42;94.07
76108;BME280;64834;52.516;10.528;2022-12-07T08:57:09;100661.81;;;2.45;93.76
76108;BME280;64834;52.516;10.528;2022-12-07T08:59:35;100665.16;;;2.44;93.06
76108;BME280;64834;52.516;10.528;2022-12-07T09:02:01;100660.78;;;2.43;93.36
76108;BME280;64834;52.516;10.528;2022-12-07T09:04:27;100652.13;;;2.42;92.91
76108;BME280;64834;52.516;10.528;2022-12-07T09:06:54;100663.91;;;2.39;92.98
76108;BME280;64834;52.516;10.528;2022-12-07T09:09:20;100653.41;;;2.37;92.49
76108;BME280;64834;52.516;10.528;2022-12-07T09:11:45;100651.22;;;2.42;92.73
76108;BME280;64834;52.516;10.528;2022-12-07T09:14:11;100660.53;;;2.40;92.97
76108;BME280;64834;52.516;10.528;2022-12-07T09:16:38;100657.06;;;2.39;92.99
76108;BME280;64834;52.516;10.528;2022-12-07T09:19:03;100658.44;;;2.36;92.71
76108;BME280;64834;52.516;10.528;2022-12-07T09:21:29;100660.63;;;2.31;92.93
76108;BME280;64834;52.516;10.528;2022-12-07T09:23:54;100662.28;;;2.31;92.81
76108;BME280;64834;52.516;10.528;2022-12-07T09:26:19;100659.84;;;2.32;92.90
76108;BME280;64834;52.516;10.528;2022-12-07T09:28:45;100662.66;;;2.25;92.46
76108;BME280;64834;52.516;10.528;2022-12-07T09:31:10;100653.25;;;2.26;92.10
76108;BME280;64834;52.516;10.528;2022-12-07T09:33:35;100652.50;;;2.27;92.17
76108;BME280;64834;52.516;10.528;2022-12-07T09:36:01;100654.69;;;2.32;92.72
76108;BME280;64834;52.516;10.528;2022-12-07T09:38:28;100657.53;;;2.35;93.15
76108;BME280;64834;52.516;10.528;2022-12-07T09:40:55;100654.06;;;2.35;92.27
76108;BME280;64834;52.516;10.528;2022-12-07T09:43:22;100651.88;;;2.39;92.70
76108;BME280;64834;52.516;10.528;2022-12-07T09:45:51;100664.16;;;2.42;92.71
76108;BME280;64834;52.516;10.528;2022-12-07T09:48:21;100657.44;;;2.44;93.00
76108;BME280;64834;52.516;10.528;2022-12-07T09:50:48;100651.88;;;2.39;92.63
76108;BME280;64834;52.516;10.528;2022-12-07T09:53:23;100654.84;;;2.44;92.35
76108;BME280;64834;52.516;10.528;2022-12-07T09:55:50;100650.34;;;2.41;92.24
76108;BME280;64834;52.516;10.528;2022-12-07T09:58:25;100647.63;;;2.40;92.48
76108;BME280;64834;52.516;10.528;2022-12-07T10:03:32;100658.19;;;2.43;92.20
76108;BME280;64834;52.516;10.528;2022-12-07T10:05:57;100652.13;;;2.42;92.10
76108;BME280;64834;52.516;10.528;2022-12-07T10:08:24;100648.53;;;2.51;92.52
76108;BME280;64834;52.516;10.528;2022-12-07T10:10:55;100656.56;;;2.54;92.38
76108;BME280;64834;52.516;10.528;2022-12-07T10:13:47;100653.47;;;2.58;91.58
76108;BME280;64834;52.516;10.528;2022-12-07T10:16:37;100650.38;;;2.72;91.45
76108;BME280;64834;52.516;10.528;2022-12-07T10:24:29;100648.84;;;2.84;90.52
76108;BME280;64834;52.516;10.528;2022-12-07T10:26:55;100648.19;;;2.87;91.03
76108;BME280;64834;52.516;10.528;2022-12-07T10:29:33;100641.88;;;2.93;91.01
76108;BME280;64834;52.516;10.528;2022-12-07T10:32:05;100634.78;;;2.91;90.26
76108;BME280;64834;52.516;10.528;2022-12-07T10:34:36;100632.06;;;2.89;90.69
76108;BME280;64834;52.516;10.528;2022-12-07T10:39:53;100631.78;;;2.86;90.08
76108;BME280;64834;52.516;10.528;2022-12-07T10:44:46;100629.72;;;2.82;89.35
76108;BME280;64834;52.516;10.528;2022-12-07T10:47:21;100642.38;;;2.79;89.23
76108;BME280;64834;52.516;10.528;2022-12-07T10:50:19;100638.63;;;2.86;89.98
76108;BME280;64834;52.516;10.528;2022-12-07T10:53:10;100641.22;;;2.86;89.58
76108;BME280;64834;52.516;10.528;2022-12-07T10:58:31;100639.53;;;2.86;89.50
76108;BME280;64834;52.516;10.528;2022-12-07T11:04:29;100627.63;;;2.88;89.26
76108;BME280;64834;52.516;10.528;2022-12-07T11:07:02;100635.00;;;2.94;89.80
76108;BME280;64834;52.516;10.528;2022-12-07T11:09:47;100628.69;;;2.90;89.09
76108;BME280;64834;52.516;10.528;2022-12-07T11:15:17;100630.88;;;2.86;89.03
76108;BME280;64834;52.516;10.528;2022-12-07T11:17:49;100628.69;;;2.90;89.71
76108;BME280;64834;52.516;10.528;2022-12-07T11:23:25;100625.06;;;2.88;88.97
76108;BME280;64834;52.516;10.528;2022-12-07T11:32:04;100604.66;;;2.91;89.75
76108;BME280;64834;52.516;10.528;2022-12-07T11:35:11;100612.91;;;2.87;89.18
76108;BME280;64834;52.516;10.528;2022-12-07T11:37:36;100611.50;;;2.91;89.69
76108;BME280;64834;52.516;10.528;2022-12-07T11:45:26;100605.81;;;2.95;89.16
76108;BME280;64834;52.516;10.528;2022-12-07T11:51:09;100604.38;;;2.98;89.56
76108;BME280;64834;52.516;10.528;2022-12-07T11:53:38;100605.41;;;3.01;89.24
76108;BME280;64834;52.516;10.528;2022-12-07T12:01:37;100604.38;;;2.98;89.54
76108;BME280;64834;52.516;10.528;2022-12-07T12:04:16;100592.38;;;2.99;89.57
76108;BME280;64834;52.516;10.528;2022-12-07T12:06:47;100591.97;;;3.05;89.50
76108;BME280;64834;52.516;10.528;2022-12-07T12:09:25;100582.16;;;3.11;89.33
76108;BME280;64834;52.516;10.528;2022-12-07T12:12:13;100580.75;;;3.14;88.75
76108;BME280;64834;52.516;10.528;2022-12-07T12:17:38;100568.56;;;3.23;87.85
76108;BME280;64834;52.516;10.528;2022-12-07T12:20:32;100574.75;;;3.25;87.93
76108;BME280;64834;52.516;10.528;2022-12-07T12:23:13;100571.91;;;3.22;88.03
76108;BME280;64834;52.516;10.528;2022-12-07T12:25:48;100568.78;;;3.27;87.93
76108;BME280;64834;52.516;10.528;2022-12-07T12:28:25;100568.16;;;3.29;86.49
76108;BME280;64834;52.516;10.528;2022-12-07T12:31:07;100567.38;;;3.30;87.10
76108;BME280;64834;52.516;10.528;2022-12-07T12:33:34;100575.53;;;3.35;86.79
76108;BME280;64834;52.516;10.528;2022-12-07T12:47:58;100546.78;;;3.42;86.27
76108;BME280;64834;52.516;10.528;2022-12-07T12:57:33;100554.94;;;3.36;86.53
76108;BME280;64834;52.516;10.528;2022-12-07T13:00:19;100543.69;;;3.36;86.23
76108;BME280;64834;52.516;10.528;2022-12-07T13:02:48;100543.94;;;3.39;85.93
76108;BME280;64834;52.516;10.528;2022-12-07T13:10:29;100545.00;;;3.31;85.76
76108;BME280;64834;52.516;10.528;2022-12-07T13:13:02;100531.84;;;3.28;85.65
76108;BME280;64834;52.516;10.528;2022-12-07T13:18:02;100546.44;;;3.27;86.65
76108;BME280;64834;52.516;10.528;2022-12-07T13:20:46;100534.44;;;3.28;85.39
76108;BME280;64834;52.516;10.528;2022-12-07T13:23:14;100542.03;;;3.26;86.46
76108;BME280;64834;52.516;10.528;2022-12-07T13:25:48;100537.75;;;3.27;86.37
76108;BME280;64834;52.516;10.528;2022-12-07T13:28:20;100548.00;;;3.25;86.39
76108;BME280;64834;52.516;10.528;2022-12-07T13:31:02;100550.34;;;3.22;87.04
76108;BME280;64834;52.516;10.528;2022-12-07T13:33:29;100548.25;;;3.18;86.26
76108;BME280;64834;52.516;10.528;2022-12-07T13:35:55;100541.56;;;3.10;85.87
76108;BME280;64834;52.516;10.528;2022-12-07T13:38:28;100540.91;;;3.12;87.01
76108;BME280;64834;52.516;10.528;2022-12-07T13:41:03;100546.19;;;3.14;88.07
76108;BME280;64834;52.516;10.528;2022-12-07T13:43:28;100545.06;;;3.10;86.74
76108;BME280;64834;52.516;10.528;2022-12-07T13:45:58;100539.78;;;3.09;87.10
76108;BME280;64834;52.516;10.528;2022-12-07T13:48:31;100540.41;;;3.06;87.16
76108;BME280;64834;52.516;10.528;2022-12-07T13:50:59;100537.03;;;3.07;87.80
76108;BME280;64834;52.516;10.528;2022-12-07T13:53:26;100538.72;;;3.07;87.68
76108;BME280;64834;52.516;10.528;2022-12-07T13:55:57;100540.41;;;3.06;88.19
76108;BME280;64834;52.516;10.528;2022-12-07T13:58:23;100533.19;;;3.02;87.88
76108;BME280;64834;52.516;10.528;2022-12-07T14:00:49;100540.28;;;3.05;87.95
76108;BME280;64834;52.516;10.528;2022-12-07T14:05:42;100537.44;;;3.02;88.94
76108;BME280;64834;52.516;10.528;2022-12-07T14:13:27;100557.00;;;1.87;89.40
76108;BME280;64834;52.516;10.528;2022-12-07T14:15:54;100558.16;;;1.52;91.47
76108;BME280;64834;52.516;10.528;2022-12-07T14:18:35;100558.34;;;1.16;91.94
76108;BME280;64834;52.516;10.528;2022-12-07T14:23:37;100554.75;;;0.95;93.04
76108;BME280;64834;52.516;10.528;2022-12-07T14:28:38;100561.63;;;0.86;93.19
76108;BME280;64834;52.516;10.528;2022-12-07T14:31:11;100563.94;;;0.83;93.29
76108;BME280;64834;52.516;10.528;2022-12-07T14:33:37;100558.78;;;0.83;93.72
76108;BME280;64834;52.516;10.528;2022-12-07T14:36:03;100566.00;;;0.87;93.68
76108;BME280;64834;52.516;10.528;2022-12-07T14:38:28;100573.59;;;0.85;93.54
76108;BME280;64834;52.516;10.528;2022-12-07T14:40:54;100564.06;;;0.84;93.77
76108;BME280;64834;52.516;10.528;2022-12-07T14:43:40;100566.00;;;0.87;93.74
76108;BME280;64834;52.516;10.528;2022-12-07T14:46:05;100561.38;;;1.01;93.81